KOLV/OLV METAR and TAF weather

Enter ICAO airport designator
Station Type Date Time Source
KOLV METAR 2019/05/23 18:50 UTC NOAA

KOLV 231850Z 18004KT 10SM BKN039 BKN250 31/22 A3016


Station Type Date Time Source
KOLV Decoded METAR 2019/05/23 18:50 UTC NOAA

Olive Branch, Olive Branch Airport, MS, United States (KOLV) 34-58-44N 089-47-13W
May 23, 2019 - 02:50 PM EDT / 2019.05.23 1850 UTC
Wind: from the S (180 degrees) at 5 MPH (4 KT):0
Visibility: 10 mile(s):0
Sky conditions: mostly cloudy
Temperature: 87 F (31 C)
Heat index: 92.3 F (33.5 C):1
Dew Point: 71 F (22 C)
Relative Humidity: 58%
Pressure (altimeter): 30.16 in. Hg (1021 hPa)
ob: KOLV 231850Z 18004KT 10SM BKN039 BKN250 31/22 A3016
cycle: 19

Station Type Date Time Source
KOLV TAF UTC NOAA

Error!

Example: see airport list